NSZ3221 ENGM-EKCH
Flight info
| Callsign | NSZ3221 |
|---|---|
| Flight time | N/A |
| Altitude | 31000 |
| Route | OKSAT L996 GETPA/N0446F350 L996 KELIN DCT TOPLA L996 ERNOV ERNOV4C/22L |
| Aircraft | B738/M-SDE2E3FGHIRWXY/LB1 |
Departure
| Time | N/A |
|---|---|
| Airport | Oslo-Gardermoen International Airport (ENGM) |
Arrival
| Time | 2026-05-01 07:39 |
|---|---|
| Airport | Copenhagen Kastrup Airport (EKCH) |
| Time | Latitude | Longitude | Altitude | Speed | Heading |
|---|---|---|---|---|---|
| 2026-05-01 07:23 | 56.10102 | 12.54285 | 10650 ft | 290 kts | 195° |
| 2026-05-01 07:23 | 56.06199 | 12.52399 | 10021 ft | 288 kts | 195° |
| 2026-05-01 07:24 | 56.04253 | 12.51477 | 9676 ft | 288 kts | 195° |
| 2026-05-01 07:24 | 56.02320 | 12.50567 | 9410 ft | 283 kts | 195° |
| 2026-05-01 07:24 | 56.00460 | 12.49695 | 9177 ft | 274 kts | 195° |
| 2026-05-01 07:24 | 55.98612 | 12.48831 | 8874 ft | 274 kts | 195° |
| 2026-05-01 07:25 | 55.96749 | 12.47963 | 8620 ft | 271 kts | 195° |
| 2026-05-01 07:25 | 55.94927 | 12.47115 | 8471 ft | 270 kts | 195° |
| 2026-05-01 07:25 | 55.93091 | 12.46258 | 8437 ft | 272 kts | 195° |
| 2026-05-01 07:25 | 55.91266 | 12.45396 | 8427 ft | 270 kts | 195° |
| 2026-05-01 07:26 | 55.89450 | 12.44537 | 8424 ft | 270 kts | 195° |
| 2026-05-01 07:26 | 55.88245 | 12.43967 | 8424 ft | 270 kts | 195° |
| 2026-05-01 07:26 | 55.85845 | 12.42833 | 8447 ft | 265 kts | 195° |
| 2026-05-01 07:26 | 55.84656 | 12.42272 | 8412 ft | 259 kts | 195° |
| 2026-05-01 07:27 | 55.82937 | 12.41462 | 8230 ft | 254 kts | 195° |
| 2026-05-01 07:27 | 55.81189 | 12.40640 | 7719 ft | 264 kts | 195° |
| 2026-05-01 07:27 | 55.79403 | 12.39801 | 7378 ft | 266 kts | 195° |
| 2026-05-01 07:27 | 55.77592 | 12.39260 | 7099 ft | 265 kts | 176° |
| 2026-05-01 07:28 | 55.75859 | 12.40200 | 6962 ft | 258 kts | 148° |
| 2026-05-01 07:28 | 55.74554 | 12.42290 | 6804 ft | 252 kts | 128° |
| 2026-05-01 07:28 | 55.73523 | 12.44808 | 6521 ft | 252 kts | 126° |
| 2026-05-01 07:28 | 55.72503 | 12.47362 | 6187 ft | 255 kts | 126° |
| 2026-05-01 07:29 | 55.71695 | 12.50148 | 5863 ft | 256 kts | 102° |
| 2026-05-01 07:29 | 55.71737 | 12.53284 | 5570 ft | 255 kts | 73° |
| 2026-05-01 07:29 | 55.72400 | 12.56140 | 5342 ft | 253 kts | 62° |
| 2026-05-01 07:29 | 55.73214 | 12.58911 | 5093 ft | 253 kts | 61° |
| 2026-05-01 07:30 | 55.74031 | 12.61670 | 4841 ft | 252 kts | 61° |
| 2026-05-01 07:30 | 55.74895 | 12.64359 | 4572 ft | 250 kts | 49° |
| 2026-05-01 07:30 | 55.76144 | 12.66460 | 4374 ft | 243 kts | 38° |
| 2026-05-01 07:30 | 55.77414 | 12.68374 | 4267 ft | 236 kts | 38° |
| 2026-05-01 07:31 | 55.78657 | 12.70271 | 4097 ft | 235 kts | 38° |
| 2026-05-01 07:31 | 55.82405 | 12.76096 | 4012 ft | 235 kts | 39° |
| 2026-05-01 07:32 | 55.84852 | 12.79951 | 3996 ft | 233 kts | 39° |
| 2026-05-01 07:32 | 55.86059 | 12.81855 | 3850 ft | 231 kts | 39° |
| 2026-05-01 07:33 | 55.87194 | 12.87054 | 3361 ft | 241 kts | 100° |
| 2026-05-01 07:33 | 55.86492 | 12.89688 | 3154 ft | 242 kts | 132° |
| 2026-05-01 07:33 | 55.83426 | 12.91564 | 3046 ft | 240 kts | 184° |
| 2026-05-01 07:34 | 55.81751 | 12.91436 | 3016 ft | 240 kts | 185° |
| 2026-05-01 07:34 | 55.78467 | 12.90856 | 3000 ft | 233 kts | 208° |
| 2026-05-01 07:34 | 55.77164 | 12.89267 | 3025 ft | 226 kts | 222° |
| 2026-05-01 07:35 | 55.75975 | 12.87534 | 3017 ft | 221 kts | 223° |
| 2026-05-01 07:35 | 55.74836 | 12.85800 | 3016 ft | 209 kts | 224° |
| 2026-05-01 07:35 | 55.73762 | 12.84138 | 2941 ft | 204 kts | 225° |
| 2026-05-01 07:35 | 55.72697 | 12.82486 | 2706 ft | 202 kts | 225° |
| 2026-05-01 07:36 | 55.71642 | 12.80854 | 2434 ft | 199 kts | 225° |
| 2026-05-01 07:36 | 55.70602 | 12.79246 | 2183 ft | 196 kts | 225° |
| 2026-05-01 07:36 | 55.69600 | 12.77695 | 1911 ft | 186 kts | 225° |
| 2026-05-01 07:36 | 55.68665 | 12.76248 | 1663 ft | 175 kts | 225° |
| 2026-05-01 07:37 | 55.66966 | 12.73619 | 1214 ft | 149 kts | 225° |
| 2026-05-01 07:37 | 55.66206 | 12.72439 | 1039 ft | 145 kts | 225° |
| 2026-05-01 07:37 | 55.65455 | 12.71275 | 833 ft | 143 kts | 224° |
| 2026-05-01 07:38 | 55.64702 | 12.70108 | 641 ft | 144 kts | 224° |
| 2026-05-01 07:38 | 55.63954 | 12.68949 | 413 ft | 142 kts | 224° |
| 2026-05-01 07:38 | 55.62482 | 12.66666 | 52 ft | 138 kts | 223° |
| 2026-05-01 07:39 | 55.61821 | 12.65638 | 27 ft | 109 kts | 221° |
| 2026-05-01 07:39 | 55.61405 | 12.64999 | 24 ft | 41 kts | 221° |
| 2026-05-01 07:39 | 55.61226 | 12.64456 | 23 ft | 16 kts | 251° |
| 2026-05-01 07:40 | 55.61190 | 12.64248 | 25 ft | 19 kts | 261° |
| 2026-05-01 07:40 | 55.61231 | 12.64119 | 23 ft | 14 kts | 336° |
| 2026-05-01 07:40 | 55.61314 | 12.64150 | 26 ft | 12 kts | 30° |
| 2026-05-01 07:40 | 55.61386 | 12.64231 | 26 ft | 12 kts | 32° |
| 2026-05-01 07:41 | 55.61463 | 12.64319 | 23 ft | 14 kts | 33° |
| 2026-05-01 07:41 | 55.61552 | 12.64421 | 24 ft | 16 kts | 33° |
| 2026-05-01 07:41 | 55.61767 | 12.64669 | 23 ft | 21 kts | 33° |
| 2026-05-01 07:42 | 55.61891 | 12.64812 | 23 ft | 20 kts | 32° |
| 2026-05-01 07:42 | 55.61943 | 12.64872 | 23 ft | 0 kts | 33° |
| 2026-05-01 07:42 | 55.61950 | 12.64880 | 22 ft | 4 kts | 33° |
| 2026-05-01 07:43 | 55.62007 | 12.64936 | 24 ft | 13 kts | 13° |
| 2026-05-01 07:43 | 55.62080 | 12.64826 | 24 ft | 16 kts | 303° |
| 2026-05-01 07:43 | 55.62230 | 12.64420 | 21 ft | 23 kts | 303° |
| 2026-05-01 07:44 | 55.62425 | 12.63892 | 21 ft | 27 kts | 306° |
| 2026-05-01 07:44 | 55.62646 | 12.63807 | 23 ft | 14 kts | 29° |
| 2026-05-01 07:45 | 55.62729 | 12.63901 | 25 ft | 15 kts | 32° |
| 2026-05-01 07:45 | 55.62811 | 12.63948 | 23 ft | 13 kts | 338° |
| 2026-05-01 07:45 | 55.62847 | 12.63865 | 23 ft | 6 kts | 330° |
| 2026-05-01 07:45 | 55.62887 | 12.63867 | 23 ft | 3 kts | 9° |
| 2026-05-01 07:46 | 55.62896 | 12.63870 | 23 ft | 1 kts | 11° |